Main page
METAR-TAF:

METAR-TAF

Airports :

King Abdulaziz Air Base

Dhahran, Saudi Arabia

latitude: 26-16N, longitude: 050-09E, elevation: 26 m

Current weather observation

The report was made 14 minutes ago, at 08:00 UTC
Wind 6 kt from the North/Northwest
Temperature 42°C
Humidity 13%
Pressure 999 hPa
Visibility 10 km or more
no clouds below 1500 m and no cumulonimbus

METAR: OEDR 250800Z 33006KT CAVOK 42/08 Q0999 NOSIG

Time: 11:14 (08:14 UTC)

Forecast

The report was made 5 hours and 55 minutes ago, at 02:19 UTC
Forecast valid from 25 at 06 UTC to 26 at 12 UTC
Wind 15 kt from the North
Visibility 10 km or more
no clouds below 1500 m and no cumulonimbus
Becoming
from 25 at 17 UTC to 25 at 19 UTC
Wind 5 kt from variable directions
Probability 30% :
Temporary
from 26 at 02 UTC to 26 at 05 UTC
Visibility: 5000 m
haze

TAF: OEDR 250219Z 2506/2612 35015KT CAVOK BECMG 2517/2519 VRB05KT PROB30 TEMPO 2602/2605 5000 HZ NSC

Weather observations and forecasts of more than 4000 airports (METAR and TAF reports).

The available stations are represented by yellow and red dots on the map.

Hover mouse over dot to see the name of the station.

Then click to see weather observations and forecasts.

To change the map : click on the green buttons with a black cross to zoom in, on the green button with a dash to zoom out, or on the green arrows for adjacent maps.


METAR-TAF: